Time;durP1;ratioP1;P1;durP2;ratioP2;P2;SDS_P1;SDS_P2;PMS_P1;PMS_P2;Temp;Humidity;BMP_temperature;BMP_pressure;BME280_temperature;BME280_humidity;BME280_pressure;Samples;Min_cycle;Max_cycle;Signal;HPM_P1;HPM_P2
2022/04/23 00:00:39;;;;;;;5.10;4.15;;;;;;;;;;4996062;28;20236;-16
2022/04/23 00:03:07;;;;;;;5.97;4.03;;;;;;;;;;4998474;28;20311;-16
2022/04/23 00:05:34;;;;;;;5.85;4.40;;;;;;;;;;4996895;28;20231;-16
2022/04/23 00:08:01;;;;;;;6.15;4.43;;;;;;;;;;4994407;28;20687;-16
2022/04/23 00:10:29;;;;;;;4.97;4.07;;;;;;;;;;4990142;28;20250;-15
2022/04/23 00:12:59;;;;;;;5.28;3.85;;;;;;;;;;4996574;28;20748;-16
2022/04/23 00:15:26;;;;;;;4.90;4.35;;;;;;;;;;4999318;28;20236;-16
2022/04/23 00:17:53;;;;;;;5.53;4.07;;;;;;;;;;4995408;28;20250;-16
2022/04/23 00:20:23;;;;;;;5.50;4.03;;;;;;;;;;4995841;28;20232;-16
2022/04/23 00:22:50;;;;;;;5.00;4.50;;;;;;;;;;4987084;28;20728;-16
2022/04/23 00:25:17;;;;;;;6.63;4.57;;;;;;;;;;5002286;28;20240;-16
2022/04/23 00:27:45;;;;;;;6.10;4.38;;;;;;;;;;5000724;28;20236;-16
2022/04/23 00:30:14;;;;;;;19.05;5.55;;;;;;;;;;4997617;28;20718;-16
2022/04/23 00:32:41;;;;;;;13.95;5.22;;;;;;;;;;4998894;28;20239;-16
2022/04/23 00:35:10;;;;;;;7.13;4.82;;;;;;;;;;5000694;28;20238;-16
2022/04/23 00:37:37;;;;;;;12.52;5.35;;;;;;;;;;4996096;28;20236;-15
2022/04/23 00:40:07;;;;;;;15.18;4.60;;;;;;;;;;4997442;28;20234;-16
2022/04/23 00:42:44;;;;;;;9.20;4.10;;;;;;;;;;5000963;28;20231;-16
2022/04/23 00:45:11;;;;;;;6.28;4.20;;;;;;;;;;4998654;28;20628;-16
2022/04/23 00:47:40;;;;;;;15.77;4.47;;;;;;;;;;5004683;28;20227;-16
2022/04/23 00:50:08;;;;;;;14.88;3.97;;;;;;;;;;5003406;28;20702;-16
2022/04/23 00:52:35;;;;;;;13.00;4.13;;;;;;;;;;5001012;28;20239;-16
2022/04/23 00:55:02;;;;;;;8.30;4.30;;;;;;;;;;5005212;28;20670;-16
2022/04/23 00:57:30;;;;;;;9.07;4.00;;;;;;;;;;5003607;28;20251;-16
2022/04/23 00:59:57;;;;;;;6.95;4.30;;;;;;;;;;5002576;28;21056;-16
2022/04/23 01:02:24;;;;;;;8.35;4.20;;;;;;;;;;5001049;28;20224;-16
2022/04/23 01:04:54;;;;;;;6.38;4.28;;;;;;;;;;4998838;28;20236;-15
2022/04/23 01:07:21;;;;;;;6.35;4.43;;;;;;;;;;5001522;28;20232;-16
2022/04/23 01:09:49;;;;;;;7.82;4.82;;;;;;;;;;4998260;28;20232;-16
2022/04/23 01:12:17;;;;;;;10.13;5.20;;;;;;;;;;5005327;28;20228;-16
2022/04/23 01:14:57;;;;;;;5.80;4.45;;;;;;;;;;5000428;28;20239;-15
2022/04/23 01:17:24;;;;;;;6.30;5.03;;;;;;;;;;5002939;28;20239;-16
2022/04/23 01:19:53;;;;;;;8.15;5.10;;;;;;;;;;5000878;28;20228;-16
2022/04/23 01:22:22;;;;;;;5.95;4.63;;;;;;;;;;5001323;28;20243;-16
2022/04/23 01:24:50;;;;;;;5.50;4.80;;;;;;;;;;5001593;28;20235;-15
2022/04/23 01:27:18;;;;;;;7.65;4.93;;;;;;;;;;5001588;28;20232;-16
2022/04/23 01:29:45;;;;;;;13.75;4.82;;;;;;;;;;4999741;28;20239;-16
2022/04/23 01:32:13;;;;;;;5.80;4.80;;;;;;;;;;5002748;28;20240;-16
2022/04/23 01:34:40;;;;;;;6.65;5.13;;;;;;;;;;5004121;28;20711;-16
2022/04/23 01:37:08;;;;;;;7.07;5.47;;;;;;;;;;5003063;28;20271;-16
2022/04/23 01:39:36;;;;;;;7.40;5.85;;;;;;;;;;5001069;28;20234;-16
2022/04/23 01:42:04;;;;;;;7.43;5.35;;;;;;;;;;5001334;28;20231;-16
2022/04/23 01:44:31;;;;;;;7.90;5.68;;;;;;;;;;5003740;28;20718;-16
2022/04/23 01:46:59;;;;;;;7.68;6.28;;;;;;;;;;5000736;28;20330;-16
2022/04/23 01:49:26;;;;;;;6.55;5.90;;;;;;;;;;4998254;28;20228;-16
2022/04/23 01:51:53;;;;;;;7.90;5.65;;;;;;;;;;5001894;28;20243;-15
2022/04/23 01:54:21;;;;;;;7.38;6.30;;;;;;;;;;4997679;28;21047;-16
2022/04/23 01:56:49;;;;;;;7.32;6.07;;;;;;;;;;5001777;28;20246;-16
2022/04/23 01:59:17;;;;;;;10.68;6.55;;;;;;;;;;5001090;28;20816;-16
2022/04/23 02:01:44;;;;;;;8.30;6.43;;;;;;;;;;4999486;28;20269;-16
2022/04/23 02:04:11;;;;;;;6.97;6.28;;;;;;;;;;5003199;28;20239;-16
2022/04/23 02:06:39;;;;;;;6.85;6.15;;;;;;;;;;4999596;28;20231;-16
2022/04/23 02:09:06;;;;;;;11.27;6.30;;;;;;;;;;4996569;28;20235;-16
2022/04/23 02:11:33;;;;;;;8.07;6.43;;;;;;;;;;5003190;28;20243;-16
2022/04/23 02:14:03;;;;;;;9.00;7.05;;;;;;;;;;4999959;28;20235;-15
2022/04/23 02:16:30;;;;;;;7.10;6.40;;;;;;;;;;5000091;28;20696;-16
2022/04/23 02:18:58;;;;;;;9.20;7.43;;;;;;;;;;5000299;28;20419;-15
2022/04/23 02:21:25;;;;;;;8.55;7.65;;;;;;;;;;5012381;22;20236;-14
2022/04/23 02:23:53;;;;;;;8.82;6.80;;;;;;;;;;5001465;28;20235;-14
2022/04/23 02:26:21;;;;;;;11.30;7.38;;;;;;;;;;5000272;28;20235;-14
2022/04/23 02:28:48;;;;;;;7.70;6.90;;;;;;;;;;4995458;28;20228;-14
2022/04/23 02:31:17;;;;;;;8.88;7.22;;;;;;;;;;4997034;28;20245;-14
2022/04/23 02:33:44;;;;;;;9.27;7.65;;;;;;;;;;4998954;28;20232;-14
2022/04/23 02:36:12;;;;;;;8.25;7.43;;;;;;;;;;5000982;28;20235;-14
2022/04/23 02:38:40;;;;;;;10.20;7.57;;;;;;;;;;4998497;28;20227;-14
2022/04/23 02:41:07;;;;;;;10.38;8.38;;;;;;;;;;4992795;28;20231;-14
2022/04/23 02:43:35;;;;;;;12.32;8.20;;;;;;;;;;4997122;28;20772;-14
2022/04/23 02:46:02;;;;;;;8.77;7.47;;;;;;;;;;4999806;28;20216;-14
2022/04/23 02:48:31;;;;;;;10.35;7.85;;;;;;;;;;5000050;28;20216;-14
2022/04/23 02:50:58;;;;;;;8.07;7.28;;;;;;;;;;4999042;28;20233;-14
2022/04/23 02:53:27;;;;;;;8.05;7.25;;;;;;;;;;5001292;28;20699;-15
2022/04/23 02:55:56;;;;;;;9.23;7.47;;;;;;;;;;5000157;28;20235;-13
2022/04/23 02:58:25;;;;;;;8.02;7.22;;;;;;;;;;5001302;28;20240;-14
2022/04/23 03:00:53;;;;;;;8.10;7.28;;;;;;;;;;5000787;28;20228;-14
2022/04/23 03:03:21;;;;;;;9.27;7.07;;;;;;;;;;5000060;28;20240;-15
2022/04/23 03:05:53;;;;;;;8.00;7.20;;;;;;;;;;5001848;28;20258;-15
2022/04/23 03:08:23;;;;;;;7.95;6.97;;;;;;;;;;5000432;28;20232;-14
2022/04/23 03:10:51;;;;;;;7.82;7.05;;;;;;;;;;5000306;28;20678;-15
2022/04/23 03:13:19;;;;;;;8.90;8.00;;;;;;;;;;5000317;28;20727;-14
2022/04/23 03:15:46;;;;;;;9.00;7.88;;;;;;;;;;5002228;28;20996;-14
2022/04/23 03:18:14;;;;;;;9.23;7.35;;;;;;;;;;4999044;28;20223;-15
2022/04/23 03:20:42;;;;;;;8.48;7.68;;;;;;;;;;4999453;28;20240;-14
2022/04/23 03:23:11;;;;;;;10.30;8.07;;;;;;;;;;4998192;28;20229;-15
2022/04/23 03:25:40;;;;;;;9.85;7.70;;;;;;;;;;4997955;28;20236;-13
2022/04/23 03:28:07;;;;;;;9.13;7.55;;;;;;;;;;4998918;28;20229;-13
2022/04/23 03:30:35;;;;;;;8.00;7.20;;;;;;;;;;5004540;28;20240;-14
2022/04/23 03:33:03;;;;;;;9.43;8.20;;;;;;;;;;5002794;28;20616;-15
2022/04/23 03:35:30;;;;;;;8.63;7.72;;;;;;;;;;5004007;28;20228;-14
2022/04/23 03:37:57;;;;;;;9.57;8.07;;;;;;;;;;5003715;28;20683;-15
2022/04/23 03:40:26;;;;;;;8.30;7.50;;;;;;;;;;5008184;28;20254;-14
2022/04/23 03:42:53;;;;;;;9.75;7.97;;;;;;;;;;5004418;28;20226;-14
2022/04/23 03:45:21;;;;;;;9.48;8.45;;;;;;;;;;5002270;28;21755;-14
2022/04/23 03:47:48;;;;;;;9.18;8.20;;;;;;;;;;5002070;28;20239;-14
2022/04/23 03:50:16;;;;;;;9.15;8.20;;;;;;;;;;5005046;28;20240;-14
2022/04/23 03:52:43;;;;;;;9.00;8.10;;;;;;;;;;5002411;28;20228;-13
2022/04/23 03:55:11;;;;;;;9.23;8.32;;;;;;;;;;5005422;28;20227;-14
2022/04/23 03:57:46;;;;;;;8.90;8.00;;;;;;;;;;5000657;28;20245;-14
2022/04/23 04:00:14;;;;;;;8.60;7.70;;;;;;;;;;4998485;28;20316;-14
2022/04/23 04:02:42;;;;;;;9.43;7.97;;;;;;;;;;5004925;28;20262;-14
2022/04/23 04:05:10;;;;;;;9.80;8.13;;;;;;;;;;5002091;28;20235;-14
2022/04/23 04:07:40;;;;;;;8.80;7.60;;;;;;;;;;4998116;28;20269;-14
2022/04/23 04:10:09;;;;;;;9.85;8.40;;;;;;;;;;4991418;28;20236;-14
2022/04/23 04:12:36;;;;;;;10.40;8.07;;;;;;;;;;4994563;28;20244;-14
2022/04/23 04:15:06;;;;;;;9.02;8.13;;;;;;;;;;4995126;28;20228;-14
2022/04/23 04:17:33;;;;;;;9.23;8.27;;;;;;;;;;4992872;28;20243;-14
2022/04/23 04:20:01;;;;;;;10.00;8.38;;;;;;;;;;4994429;28;20239;-13
2022/04/23 04:22:29;;;;;;;10.13;7.82;;;;;;;;;;4993169;28;20267;-13
2022/04/23 04:24:56;;;;;;;9.52;7.95;;;;;;;;;;4994128;28;20239;-14
2022/04/23 04:27:23;;;;;;;9.23;8.05;;;;;;;;;;5002047;28;20236;-15
2022/04/23 04:29:51;;;;;;;10.40;8.05;;;;;;;;;;4993173;28;20241;-14
2022/04/23 04:32:19;;;;;;;10.20;9.20;;;;;;;;;;4994909;28;20243;-14
2022/04/23 04:34:47;;;;;;;10.63;8.10;;;;;;;;;;4995268;28;20232;-14
2022/04/23 04:37:14;;;;;;;9.25;8.35;;;;;;;;;;5001102;28;20241;-14
2022/04/23 04:39:42;;;;;;;10.15;8.15;;;;;;;;;;4992910;28;20255;-15
2022/04/23 04:42:09;;;;;;;9.00;8.07;;;;;;;;;;4999469;28;20238;-15
2022/04/23 04:44:37;;;;;;;10.60;8.00;;;;;;;;;;5001705;28;20246;-14
2022/04/23 04:47:05;;;;;;;10.27;8.20;;;;;;;;;;4998782;28;20691;-14
2022/04/23 04:49:34;;;;;;;9.98;8.48;;;;;;;;;;5004081;28;20212;-14
2022/04/23 04:52:01;;;;;;;10.68;8.55;;;;;;;;;;5001748;28;20228;-14
2022/04/23 04:54:29;;;;;;;8.73;7.93;;;;;;;;;;4998362;28;20231;-14
2022/04/23 04:56:57;;;;;;;12.23;8.35;;;;;;;;;;4998084;28;20236;-14
2022/04/23 04:59:24;;;;;;;17.63;8.38;;;;;;;;;;4998362;28;20722;-14
2022/04/23 05:01:52;;;;;;;9.82;8.55;;;;;;;;;;4996265;28;20275;-14
2022/04/23 05:04:20;;;;;;;10.38;9.02;;;;;;;;;;4999557;28;20243;-14
2022/04/23 05:06:48;;;;;;;10.02;8.70;;;;;;;;;;5000734;28;20231;-14
2022/04/23 05:09:16;;;;;;;9.73;8.75;;;;;;;;;;5002391;28;20234;-14
2022/04/23 05:11:43;;;;;;;9.93;8.20;;;;;;;;;;4993906;28;20231;-14
2022/04/23 05:14:10;;;;;;;9.00;8.07;;;;;;;;;;4997847;28;20238;-14
2022/04/23 05:16:38;;;;;;;10.07;8.70;;;;;;;;;;4996780;28;20236;-14
2022/04/23 05:19:05;;;;;;;12.27;8.02;;;;;;;;;;5000059;28;20242;-13
2022/04/23 05:21:32;;;;;;;9.32;8.40;;;;;;;;;;4995033;28;20255;-14
2022/04/23 05:24:01;;;;;;;11.43;8.43;;;;;;;;;;4999858;28;20241;-14
2022/04/23 05:26:28;;;;;;;9.25;8.35;;;;;;;;;;5000067;28;20234;-14
2022/04/23 05:28:56;;;;;;;9.98;7.45;;;;;;;;;;5002849;28;20307;-14
2022/04/23 05:31:23;;;;;;;9.60;8.27;;;;;;;;;;5003352;28;20232;-14
2022/04/23 05:33:51;;;;;;;10.45;8.10;;;;;;;;;;5002275;28;20235;-14
2022/04/23 05:36:18;;;;;;;16.30;8.75;;;;;;;;;;5000883;28;20236;-14
2022/04/23 05:38:46;;;;;;;12.13;7.60;;;;;;;;;;5002621;28;21027;-16
2022/04/23 05:41:14;;;;;;;10.75;7.32;;;;;;;;;;5000884;28;20220;-14
2022/04/23 05:43:42;;;;;;;10.88;7.68;;;;;;;;;;5003740;28;20600;-14
2022/04/23 05:46:09;;;;;;;13.80;8.25;;;;;;;;;;4996519;28;20220;-14
2022/04/23 05:48:41;;;;;;;10.45;7.15;;;;;;;;;;4999397;28;20239;-13
2022/04/23 05:51:09;;;;;;;10.75;8.05;;;;;;;;;;4999837;28;20265;-13
2022/04/23 05:53:36;;;;;;;10.30;7.53;;;;;;;;;;5000577;28;20248;-14
2022/04/23 05:56:04;;;;;;;9.25;7.78;;;;;;;;;;5003435;28;20224;-13
2022/04/23 05:58:32;;;;;;;8.48;7.53;;;;;;;;;;4998590;28;20314;-14
2022/04/23 06:01:01;;;;;;;12.25;7.82;;;;;;;;;;4999371;28;20231;-14
2022/04/23 06:03:28;;;;;;;12.50;7.35;;;;;;;;;;5000643;28;20318;-14
2022/04/23 06:05:56;;;;;;;15.98;7.10;;;;;;;;;;5000231;28;20668;-14
2022/04/23 06:08:23;;;;;;;10.88;6.65;;;;;;;;;;5001947;28;20220;-14
2022/04/23 06:10:50;;;;;;;8.77;7.82;;;;;;;;;;4998555;28;20236;-13
2022/04/23 06:13:17;;;;;;;11.57;6.90;;;;;;;;;;5002458;28;20239;-14
2022/04/23 06:15:46;;;;;;;9.50;7.20;;;;;;;;;;5003860;28;20224;-14
2022/04/23 06:18:13;;;;;;;10.32;7.05;;;;;;;;;;5000029;28;20232;-14
2022/04/23 06:20:41;;;;;;;8.38;6.55;;;;;;;;;;4998606;28;20252;-13
2022/04/23 06:23:08;;;;;;;9.02;6.95;;;;;;;;;;4990082;28;20239;-14
2022/04/23 06:25:36;;;;;;;11.18;7.00;;;;;;;;;;5003116;28;20231;-15
2022/04/23 06:28:04;;;;;;;9.82;6.97;;;;;;;;;;4999003;28;20572;-16
2022/04/23 06:30:31;;;;;;;9.48;6.60;;;;;;;;;;4996752;28;20232;-16
2022/04/23 06:33:00;;;;;;;9.48;7.07;;;;;;;;;;4995453;28;20228;-15
2022/04/23 06:35:27;;;;;;;10.45;6.95;;;;;;;;;;4990328;28;20947;-16
2022/04/23 06:37:55;;;;;;;8.27;5.95;;;;;;;;;;4996139;28;20235;-16
2022/04/23 06:40:22;;;;;;;7.53;6.78;;;;;;;;;;4996231;28;20228;-16
2022/04/23 06:42:49;;;;;;;10.65;6.93;;;;;;;;;;4995400;28;20242;-15
2022/04/23 06:45:17;;;;;;;7.13;6.43;;;;;;;;;;4994277;28;20727;-16
2022/04/23 06:47:44;;;;;;;8.57;6.03;;;;;;;;;;4993418;28;20228;-15
2022/04/23 06:50:13;;;;;;;9.60;6.22;;;;;;;;;;4997346;28;20240;-15
2022/04/23 06:52:40;;;;;;;7.35;6.05;;;;;;;;;;4993368;28;20730;-14
2022/04/23 06:55:08;;;;;;;7.45;6.07;;;;;;;;;;4995552;28;20232;-15
2022/04/23 06:57:42;;;;;;;6.75;6.15;;;;;;;;;;4997768;28;20242;-13
2022/04/23 07:00:11;;;;;;;6.68;6.00;;;;;;;;;;4996813;28;20232;-16
2022/04/23 07:02:39;;;;;;;8.68;6.30;;;;;;;;;;4999526;28;20235;-16
2022/04/23 07:05:07;;;;;;;8.60;6.28;;;;;;;;;;4998524;28;20294;-16
2022/04/23 07:07:35;;;;;;;8.07;6.10;;;;;;;;;;5000855;28;20231;-15
2022/04/23 07:10:03;;;;;;;11.45;6.47;;;;;;;;;;4998513;28;20243;-16
2022/04/23 07:12:32;;;;;;;6.40;5.80;;;;;;;;;;5000900;28;20243;-16
2022/04/23 07:15:00;;;;;;;7.75;5.63;;;;;;;;;;4997238;28;20240;-16
2022/04/23 07:17:27;;;;;;;6.88;6.05;;;;;;;;;;5000612;28;20236;-16
2022/04/23 07:19:54;;;;;;;6.40;5.60;;;;;;;;;;5000100;28;20719;-16
2022/04/23 07:22:22;;;;;;;7.38;6.00;;;;;;;;;;4999862;28;20247;-16
2022/04/23 07:24:50;;;;;;;14.38;6.30;;;;;;;;;;5000232;28;20243;-16
2022/04/23 07:27:18;;;;;;;14.40;8.10;;;;;;;;;;4999702;28;20235;-15
2022/04/23 07:29:46;;;;;;;22.00;8.85;;;;;;;;;;5000551;28;20596;-16
2022/04/23 07:32:13;;;;;;;20.02;8.20;;;;;;;;;;4997264;28;20232;-15
2022/04/23 07:37:33;;;;;;;19.45;8.57;;;;;;;;;;4999998;28;20240;-16
2022/04/23 07:40:02;;;;;;;22.80;8.68;;;;;;;;;;5003352;28;20225;-15
2022/04/23 07:42:29;;;;;;;18.13;8.77;;;;;;;;;;5004374;28;20250;-16
2022/04/23 07:44:56;;;;;;;25.13;10.23;;;;;;;;;;5003537;28;20262;-16
2022/04/23 07:47:24;;;;;;;32.35;9.65;;;;;;;;;;5000520;28;20219;-16
2022/04/23 07:49:51;;;;;;;24.73;9.50;;;;;;;;;;5004109;28;20238;-16
2022/04/23 07:52:18;;;;;;;18.63;9.45;;;;;;;;;;5001909;28;20447;-16
2022/04/23 07:54:46;;;;;;;11.73;8.65;;;;;;;;;;5001338;28;20235;-16
2022/04/23 07:57:14;;;;;;;15.88;8.55;;;;;;;;;;4993701;28;20295;-16
2022/04/23 07:59:42;;;;;;;12.10;8.23;;;;;;;;;;4994368;28;20232;-16
2022/04/23 08:02:09;;;;;;;14.68;8.10;;;;;;;;;;4998705;28;20303;-16
2022/04/23 08:04:37;;;;;;;9.75;8.20;;;;;;;;;;4996697;28;20761;-15
2022/04/23 08:07:05;;;;;;;10.57;7.53;;;;;;;;;;4997263;28;20238;-16
2022/04/23 08:09:37;;;;;;;10.20;7.50;;;;;;;;;;4998951;28;20236;-16
2022/04/23 08:12:06;;;;;;;11.57;7.93;;;;;;;;;;4994372;28;20621;-16
2022/04/23 08:14:34;;;;;;;14.00;9.18;;;;;;;;;;4999325;28;20235;-15
2022/04/23 08:17:02;;;;;;;10.50;9.05;;;;;;;;;;4999626;28;20243;-16
2022/04/23 08:19:29;;;;;;;14.70;9.90;;;;;;;;;;4998032;28;20447;-16
2022/04/23 08:21:57;;;;;;;16.45;10.52;;;;;;;;;;4997112;28;20244;-16
2022/04/23 08:24:24;;;;;;;14.73;9.55;;;;;;;;;;5003333;28;20220;-16
2022/04/23 08:26:51;;;;;;;13.50;9.18;;;;;;;;;;5003658;28;20240;-16
2022/04/23 08:32:06;;;;;;;12.25;9.15;;;;;;;;;;5002096;28;20291;-16
2022/04/23 08:34:33;;;;;;;11.05;8.45;;;;;;;;;;5004266;28;20243;-16
2022/04/23 08:37:01;;;;;;;12.60;9.23;;;;;;;;;;5002200;28;20226;-16
2022/04/23 08:39:28;;;;;;;12.35;8.90;;;;;;;;;;5003667;28;20220;-16
2022/04/23 08:41:55;;;;;;;14.40;8.88;;;;;;;;;;5002205;28;20212;-16
2022/04/23 08:44:23;;;;;;;10.93;8.85;;;;;;;;;;4997365;28;20279;-16
2022/04/23 08:46:52;;;;;;;10.35;9.25;;;;;;;;;;4999970;28;20363;-16
2022/04/23 08:49:20;;;;;;;11.55;9.98;;;;;;;;;;5003511;28;20219;-16
2022/04/23 08:51:48;;;;;;;12.88;9.60;;;;;;;;;;5002059;28;20239;-16
2022/04/23 08:54:15;;;;;;;11.48;9.25;;;;;;;;;;5002200;28;20242;-16
2022/04/23 08:56:43;;;;;;;11.52;9.43;;;;;;;;;;5003215;28;20231;-16
2022/04/23 08:59:12;;;;;;;9.52;8.55;;;;;;;;;;5001420;28;20303;-16
2022/04/23 09:01:45;;;;;;;11.07;9.18;;;;;;;;;;5001701;28;20215;-16
2022/04/23 09:04:13;;;;;;;11.07;8.98;;;;;;;;;;5000474;28;20276;-16
2022/04/23 09:06:42;;;;;;;11.45;9.70;;;;;;;;;;5001090;28;20235;-16
2022/04/23 09:09:13;;;;;;;10.23;9.23;;;;;;;;;;5000403;28;20223;-16
2022/04/23 09:11:41;;;;;;;12.32;10.10;;;;;;;;;;4997956;28;20232;-16
2022/04/23 09:14:09;;;;;;;11.60;10.35;;;;;;;;;;4997429;28;20220;-16
2022/04/23 09:25:04;;;;;;;14.27;10.63;;;;;;;;;;5003700;28;20227;-16
2022/04/23 09:27:34;;;;;;;13.55;10.52;;;;;;;;;;5006965;28;20706;-16
2022/04/23 09:30:01;;;;;;;13.23;10.55;;;;;;;;;;5001340;28;22302;-16
2022/04/23 09:32:29;;;;;;;14.35;11.23;;;;;;;;;;5002360;28;20236;-15
2022/04/23 09:35:09;;;;;;;12.30;10.65;;;;;;;;;;5001228;28;20236;-15
2022/04/23 09:40:23;;;;;;;13.90;11.38;;;;;;;;;;5000199;28;20271;-16
2022/04/23 09:43:01;;;;;;;12.80;11.40;;;;;;;;;;5002648;28;20227;-16
2022/04/23 09:45:29;;;;;;;14.57;11.40;;;;;;;;;;5004019;28;20235;-16
2022/04/23 09:47:57;;;;;;;15.30;12.25;;;;;;;;;;5001394;28;20220;-16
2022/04/23 09:50:24;;;;;;;13.60;11.65;;;;;;;;;;5001572;28;20228;-16
2022/04/23 09:52:53;;;;;;;12.30;10.43;;;;;;;;;;5002393;28;20697;-16
2022/04/23 09:55:24;;;;;;;13.45;11.38;;;;;;;;;;5002094;28;20628;-16
2022/04/23 09:57:51;;;;;;;13.15;10.90;;;;;;;;;;5002312;28;20231;-16
2022/04/23 10:00:19;;;;;;;12.25;10.82;;;;;;;;;;5001513;28;20239;-16
2022/04/23 10:02:47;;;;;;;13.10;10.93;;;;;;;;;;5003077;28;20222;-16
2022/04/23 10:05:16;;;;;;;13.75;11.27;;;;;;;;;;5004093;28;20323;-16
2022/04/23 10:07:43;;;;;;;13.75;11.20;;;;;;;;;;5000389;28;20228;-15
2022/04/23 10:10:13;;;;;;;14.68;11.32;;;;;;;;;;5001898;28;20274;-16
2022/04/23 10:12:40;;;;;;;11.88;10.50;;;;;;;;;;5002854;28;20246;-16
2022/04/23 10:15:08;;;;;;;14.48;10.98;;;;;;;;;;4996241;28;20228;-16
2022/04/23 10:17:35;;;;;;;14.13;12.07;;;;;;;;;;5000466;28;20227;-16
2022/04/23 10:20:04;;;;;;;13.95;11.95;;;;;;;;;;5002824;28;20231;-16
2022/04/23 10:22:31;;;;;;;14.02;12.02;;;;;;;;;;4997789;28;20250;-16
2022/04/23 10:25:00;;;;;;;13.95;11.77;;;;;;;;;;5000955;28;20245;-15
2022/04/23 10:27:29;;;;;;;13.48;11.35;;;;;;;;;;5002291;28;20227;-16
2022/04/23 10:29:56;;;;;;;16.15;12.13;;;;;;;;;;5001289;28;20686;-16
2022/04/23 10:32:24;;;;;;;13.23;11.82;;;;;;;;;;4999853;28;20253;-16
2022/04/23 10:34:53;;;;;;;12.75;10.88;;;;;;;;;;4999241;28;20734;-16
2022/04/23 10:37:21;;;;;;;14.65;11.73;;;;;;;;;;5001484;28;20219;-15
2022/04/23 10:40:06;;;;;;;13.43;11.02;;;;;;;;;;5001048;28;20224;-16
2022/04/23 10:42:35;;;;;;;12.50;11.20;;;;;;;;;;5000052;28;20232;-16
2022/04/23 10:45:05;;;;;;;15.23;11.30;;;;;;;;;;4999945;28;20236;-15
2022/04/23 10:47:34;;;;;;;16.38;12.07;;;;;;;;;;5002322;28;20223;-16
2022/04/23 10:50:29;;;;;;;14.63;12.02;;;;;;;;;;5000138;28;20228;-16
2022/04/23 10:52:57;;;;;;;14.63;12.43;;;;;;;;;;5000676;28;20235;-15
2022/04/23 10:55:25;;;;;;;16.27;12.15;;;;;;;;;;4999907;28;20290;-15
2022/04/23 10:57:57;;;;;;;12.18;10.95;;;;;;;;;;5000627;28;20299;-15
2022/04/23 11:00:27;;;;;;;13.25;11.60;;;;;;;;;;4999369;28;20240;-15
2022/04/23 11:02:55;;;;;;;14.30;12.27;;;;;;;;;;5000997;28;20232;-14
2022/04/23 11:13:59;;;;;;;14.77;12.25;;;;;;;;;;5000409;28;20237;-15
2022/04/23 11:16:28;;;;;;;13.98;12.43;;;;;;;;;;4997830;28;20240;-14
2022/04/23 11:18:55;;;;;;;14.23;11.98;;;;;;;;;;5000110;28;20790;-15
2022/04/23 11:21:24;;;;;;;13.50;11.93;;;;;;;;;;4996733;28;20251;-14
2022/04/23 11:23:51;;;;;;;15.18;12.32;;;;;;;;;;4999318;28;20231;-15
2022/04/23 11:26:21;;;;;;;12.68;11.00;;;;;;;;;;4997993;28;20598;-15
2022/04/23 11:28:57;;;;;;;15.85;12.57;;;;;;;;;;4999715;28;20319;-14
2022/04/23 11:31:26;;;;;;;16.38;13.43;;;;;;;;;;4998240;28;20226;-15
2022/04/23 11:33:54;;;;;;;18.05;15.55;;;;;;;;;;5000010;28;20295;-15
2022/04/23 11:36:24;;;;;;;24.30;16.70;;;;;;;;;;5001723;28;20980;-15
2022/04/23 11:38:52;;;;;;;20.85;16.75;;;;;;;;;;5000238;28;20228;-15
2022/04/23 11:41:29;;;;;;;21.73;16.40;;;;;;;;;;4999981;28;20243;-15
2022/04/23 11:43:56;;;;;;;19.02;15.98;;;;;;;;;;5000314;28;20246;-15
2022/04/23 11:46:23;;;;;;;22.55;17.85;;;;;;;;;;4995616;28;20231;-15
2022/04/23 11:48:52;;;;;;;21.00;17.20;;;;;;;;;;4997547;28;20798;-15
2022/04/23 11:51:21;;;;;;;23.20;16.98;;;;;;;;;;4998868;28;20236;-14
2022/04/23 11:53:53;;;;;;;22.75;17.60;;;;;;;;;;4997891;28;20331;-15
2022/04/23 11:56:22;;;;;;;18.88;16.42;;;;;;;;;;5004446;28;20227;-15
2022/04/23 11:58:49;;;;;;;19.30;16.80;;;;;;;;;;5003340;28;20223;-15
2022/04/23 12:01:16;;;;;;;24.40;16.02;;;;;;;;;;5000159;28;20244;-15
2022/04/23 12:03:48;;;;;;;21.60;16.33;;;;;;;;;;5001256;28;20220;-15
2022/04/23 12:06:16;;;;;;;22.98;16.60;;;;;;;;;;5004794;28;20227;-14
2022/04/23 12:08:44;;;;;;;20.08;16.60;;;;;;;;;;5002406;28;21122;-15
2022/04/23 12:11:21;;;;;;;17.58;15.05;;;;;;;;;;5004186;28;20227;-14
2022/04/23 12:13:48;;;;;;;19.70;15.32;;;;;;;;;;4999568;28;20683;-15
2022/04/23 12:16:29;;;;;;;17.85;15.48;;;;;;;;;;4998087;28;20239;-15
2022/04/23 12:19:00;;;;;;;18.77;15.45;;;;;;;;;;5000992;28;20232;-15
2022/04/23 12:21:29;;;;;;;16.52;14.55;;;;;;;;;;5003791;28;20252;-15
2022/04/23 12:23:56;;;;;;;19.27;14.63;;;;;;;;;;5000667;28;20232;-15
2022/04/23 12:26:24;;;;;;;19.80;13.57;;;;;;;;;;5002828;28;20228;-15
2022/04/23 12:42:54;;;;;;;13.88;12.35;;;;;;;;;;5003569;28;20220;-15
2022/04/23 12:45:21;;;;;;;15.45;12.32;;;;;;;;;;4999826;28;20228;-14
2022/04/23 12:47:48;;;;;;;17.15;12.20;;;;;;;;;;5001875;28;20313;-15
2022/04/23 12:50:25;;;;;;;15.50;11.45;;;;;;;;;;5004262;28;20231;-15
2022/04/23 12:52:54;;;;;;;12.23;11.00;;;;;;;;;;5001890;28;20883;-15
2022/04/23 12:55:22;;;;;;;17.30;11.52;;;;;;;;;;5004691;28;20216;-15
2022/04/23 12:57:50;;;;;;;14.95;11.02;;;;;;;;;;4998673;28;20644;-14
2022/04/23 13:00:18;;;;;;;12.27;10.75;;;;;;;;;;5001711;28;20232;-14
2022/04/23 13:02:48;;;;;;;13.18;11.25;;;;;;;;;;5003484;28;20235;-15
2022/04/23 13:05:15;;;;;;;13.00;11.20;;;;;;;;;;5002488;28;21071;-15
2022/04/23 13:10:29;;;;;;;11.95;10.68;;;;;;;;;;5003233;28;20235;-15
2022/04/23 13:12:56;;;;;;;13.80;10.70;;;;;;;;;;5002165;28;20710;-14
2022/04/23 13:15:24;;;;;;;15.95;10.20;;;;;;;;;;5013863;28;20234;-14
2022/04/23 13:17:51;;;;;;;13.52;10.20;;;;;;;;;;4988184;28;20998;-15
2022/04/23 13:20:19;;;;;;;12.85;10.20;;;;;;;;;;4997730;28;20238;-15
2022/04/23 13:22:46;;;;;;;12.70;10.10;;;;;;;;;;4989893;28;20251;-15
2022/04/23 13:25:21;;;;;;;11.43;10.18;;;;;;;;;;4990554;28;20247;-15
2022/04/23 13:27:49;;;;;;;15.50;10.15;;;;;;;;;;4995789;28;20251;-15
2022/04/23 13:30:17;;;;;;;12.27;10.75;;;;;;;;;;4996870;28;20240;-14
2022/04/23 13:32:46;;;;;;;12.48;11.18;;;;;;;;;;4987696;28;20236;-15
2022/04/23 13:35:14;;;;;;;13.13;11.73;;;;;;;;;;4983348;28;20711;-15
2022/04/23 13:37:41;;;;;;;12.82;11.43;;;;;;;;;;4995830;28;20251;-15
2022/04/23 13:40:09;;;;;;;14.52;10.77;;;;;;;;;;4994372;28;20227;-15
2022/04/23 13:42:37;;;;;;;13.80;11.48;;;;;;;;;;4998114;28;20243;-15
2022/04/23 13:45:07;;;;;;;15.20;11.25;;;;;;;;;;5003442;28;20227;-14
2022/04/23 13:47:34;;;;;;;13.02;11.60;;;;;;;;;;5000988;28;20227;-15
2022/04/23 13:50:01;;;;;;;13.10;10.60;;;;;;;;;;4999982;28;20239;-15
2022/04/23 13:52:29;;;;;;;12.85;10.15;;;;;;;;;;4993835;28;20717;-15
2022/04/23 13:54:56;;;;;;;10.82;9.73;;;;;;;;;;4998616;28;20224;-15
2022/04/23 13:57:24;;;;;;;10.10;8.93;;;;;;;;;;4997145;28;20239;-15
2022/04/23 13:59:52;;;;;;;12.18;9.75;;;;;;;;;;4998953;28;20246;-15
2022/04/23 14:10:44;;;;;;;12.98;11.02;;;;;;;;;;4997595;28;20236;-15
2022/04/23 14:13:11;;;;;;;14.27;11.32;;;;;;;;;;4993096;28;20469;-15
2022/04/23 14:15:38;;;;;;;12.93;11.52;;;;;;;;;;4985772;28;20228;-15
2022/04/23 14:18:07;;;;;;;13.57;11.15;;;;;;;;;;4995179;28;20714;-14
2022/04/23 14:20:35;;;;;;;11.98;10.70;;;;;;;;;;4996978;28;20231;-15
2022/04/23 14:23:02;;;;;;;12.48;10.93;;;;;;;;;;4996438;28;20344;-15
2022/04/23 14:25:33;;;;;;;12.30;11.00;;;;;;;;;;4995905;28;20445;-15
2022/04/23 14:28:01;;;;;;;13.50;11.27;;;;;;;;;;4999935;28;20268;-16
2022/04/23 14:30:28;;;;;;;11.68;10.57;;;;;;;;;;4998838;28;20721;-16
2022/04/23 14:32:56;;;;;;;13.18;11.07;;;;;;;;;;5000674;28;20302;-16
2022/04/23 14:35:24;;;;;;;12.13;10.30;;;;;;;;;;4999935;28;20620;-16
2022/04/23 14:37:52;;;;;;;16.70;10.30;;;;;;;;;;4997906;28;20243;-16
2022/04/23 14:40:21;;;;;;;11.70;10.50;;;;;;;;;;4991511;28;20330;-17
2022/04/23 14:42:48;;;;;;;11.63;10.23;;;;;;;;;;5001157;28;20242;-17
2022/04/23 14:45:18;;;;;;;11.57;9.60;;;;;;;;;;5000033;28;20243;-16
2022/04/23 14:47:45;;;;;;;13.68;9.77;;;;;;;;;;5002494;28;20276;-15
2022/04/23 14:50:12;;;;;;;12.95;10.18;;;;;;;;;;4998846;28;20231;-16
2022/04/23 14:55:31;;;;;;;10.55;9.45;;;;;;;;;;5001360;28;20231;-16
2022/04/23 14:57:59;;;;;;;11.07;9.27;;;;;;;;;;4998251;28;20258;-16
2022/04/23 15:00:26;;;;;;;11.57;8.98;;;;;;;;;;5002231;28;20347;-17
2022/04/23 15:02:54;;;;;;;19.55;9.82;;;;;;;;;;5000958;28;20232;-15
2022/04/23 15:05:22;;;;;;;21.92;9.15;;;;;;;;;;5001056;28;20235;-16
2022/04/23 15:07:51;;;;;;;12.43;8.50;;;;;;;;;;4997889;28;20243;-16
2022/04/23 15:10:19;;;;;;;16.00;9.07;;;;;;;;;;5001663;28;20755;-16
2022/04/23 15:12:46;;;;;;;11.65;8.80;;;;;;;;;;4999100;28;20236;-16
2022/04/23 15:15:13;;;;;;;13.50;8.63;;;;;;;;;;4998746;28;20228;-16
2022/04/23 15:17:42;;;;;;;15.30;9.07;;;;;;;;;;4992942;28;20250;-16
2022/04/23 15:20:09;;;;;;;16.73;8.75;;;;;;;;;;4998632;28;20235;-16
2022/04/23 15:22:37;;;;;;;10.90;9.38;;;;;;;;;;4997491;28;20274;-16
2022/04/23 15:25:06;;;;;;;11.02;9.10;;;;;;;;;;5005712;28;20224;-15
2022/04/23 15:27:34;;;;;;;11.88;9.30;;;;;;;;;;5002785;28;20232;-16
2022/04/23 15:30:01;;;;;;;9.25;8.25;;;;;;;;;;5004934;28;21107;-16